sensor_id;sensor_type;location;lat;lon;timestamp;P1;durP1;ratioP1;P2;durP2;ratioP2
1839;SDS011;920;48.944;9.148;2023-05-07T00:00:22;4.87;;;3.73;;
1839;SDS011;920;48.944;9.148;2023-05-07T00:02:49;11.43;;;3.83;;
1839;SDS011;920;48.944;9.148;2023-05-07T00:05:18;4.53;;;3.73;;
1839;SDS011;920;48.944;9.148;2023-05-07T00:07:45;4.57;;;4.17;;
1839;SDS011;920;48.944;9.148;2023-05-07T00:10:13;4.63;;;3.90;;
1839;SDS011;920;48.944;9.148;2023-05-07T00:12:40;4.37;;;3.97;;
1839;SDS011;920;48.944;9.148;2023-05-07T00:15:07;4.47;;;4.07;;
1839;SDS011;920;48.944;9.148;2023-05-07T00:17:35;4.13;;;3.73;;
1839;SDS011;920;48.944;9.148;2023-05-07T00:20:02;4.70;;;3.87;;
1839;SDS011;920;48.944;9.148;2023-05-07T00:22:31;5.30;;;3.67;;
1839;SDS011;920;48.944;9.148;2023-05-07T00:24:58;4.70;;;3.80;;
1839;SDS011;920;48.944;9.148;2023-05-07T00:27:25;6.70;;;3.87;;
1839;SDS011;920;48.944;9.148;2023-05-07T00:29:52;4.37;;;3.70;;
1839;SDS011;920;48.944;9.148;2023-05-07T00:32:19;4.93;;;3.70;;
1839;SDS011;920;48.944;9.148;2023-05-07T00:34:46;3.83;;;3.43;;
1839;SDS011;920;48.944;9.148;2023-05-07T00:37:13;4.43;;;3.50;;
1839;SDS011;920;48.944;9.148;2023-05-07T00:39:41;3.83;;;3.43;;
1839;SDS011;920;48.944;9.148;2023-05-07T00:42:08;3.87;;;3.47;;
1839;SDS011;920;48.944;9.148;2023-05-07T00:44:35;4.40;;;3.63;;
1839;SDS011;920;48.944;9.148;2023-05-07T00:47:03;4.57;;;4.10;;
1839;SDS011;920;48.944;9.148;2023-05-07T00:49:33;5.03;;;3.67;;
1839;SDS011;920;48.944;9.148;2023-05-07T00:52:05;3.87;;;3.47;;
1839;SDS011;920;48.944;9.148;2023-05-07T00:54:32;4.47;;;3.50;;
1839;SDS011;920;48.944;9.148;2023-05-07T00:57:03;4.57;;;4.17;;
1839;SDS011;920;48.944;9.148;2023-05-07T00:59:30;3.93;;;3.53;;
1839;SDS011;920;48.944;9.148;2023-05-07T01:01:58;4.97;;;3.20;;
1839;SDS011;920;48.944;9.148;2023-05-07T01:04:25;4.97;;;3.77;;
1839;SDS011;920;48.944;9.148;2023-05-07T01:06:52;5.07;;;4.37;;
1839;SDS011;920;48.944;9.148;2023-05-07T01:09:21;4.70;;;4.20;;
1839;SDS011;920;48.944;9.148;2023-05-07T01:11:48;5.43;;;4.40;;
1839;SDS011;920;48.944;9.148;2023-05-07T01:14:18;5.33;;;3.63;;
1839;SDS011;920;48.944;9.148;2023-05-07T01:16:45;6.63;;;3.40;;
1839;SDS011;920;48.944;9.148;2023-05-07T01:19:12;4.10;;;3.70;;
1839;SDS011;920;48.944;9.148;2023-05-07T01:21:42;5.43;;;3.50;;
1839;SDS011;920;48.944;9.148;2023-05-07T01:24:13;4.83;;;3.63;;
1839;SDS011;920;48.944;9.148;2023-05-07T01:26:41;3.73;;;3.43;;
1839;SDS011;920;48.944;9.148;2023-05-07T01:29:08;3.80;;;3.27;;
1839;SDS011;920;48.944;9.148;2023-05-07T01:31:35;4.23;;;3.83;;
1839;SDS011;920;48.944;9.148;2023-05-07T01:34:03;4.67;;;3.77;;
1839;SDS011;920;48.944;9.148;2023-05-07T01:36:30;4.23;;;3.63;;
1839;SDS011;920;48.944;9.148;2023-05-07T01:38:58;4.60;;;3.13;;
1839;SDS011;920;48.944;9.148;2023-05-07T01:41:28;3.67;;;3.37;;
1839;SDS011;920;48.944;9.148;2023-05-07T01:43:55;4.83;;;3.70;;
1839;SDS011;920;48.944;9.148;2023-05-07T01:46:22;5.07;;;4.00;;
1839;SDS011;920;48.944;9.148;2023-05-07T01:48:49;4.73;;;4.03;;
1839;SDS011;920;48.944;9.148;2023-05-07T01:51:16;5.40;;;3.90;;
1839;SDS011;920;48.944;9.148;2023-05-07T01:53:45;4.00;;;3.60;;
1839;SDS011;920;48.944;9.148;2023-05-07T01:56:16;3.90;;;3.50;;
1839;SDS011;920;48.944;9.148;2023-05-07T01:58:45;4.40;;;2.97;;
1839;SDS011;920;48.944;9.148;2023-05-07T02:01:12;3.80;;;3.30;;
1839;SDS011;920;48.944;9.148;2023-05-07T02:03:39;4.17;;;3.20;;
1839;SDS011;920;48.944;9.148;2023-05-07T02:06:13;3.70;;;3.40;;
1839;SDS011;920;48.944;9.148;2023-05-07T02:08:40;3.50;;;3.20;;
1839;SDS011;920;48.944;9.148;2023-05-07T02:11:08;3.80;;;3.40;;
1839;SDS011;920;48.944;9.148;2023-05-07T02:13:36;4.47;;;3.50;;
1839;SDS011;920;48.944;9.148;2023-05-07T02:16:04;3.33;;;2.67;;
1839;SDS011;920;48.944;9.148;2023-05-07T02:18:31;4.00;;;3.30;;
1839;SDS011;920;48.944;9.148;2023-05-07T02:20:59;4.00;;;3.60;;
1839;SDS011;920;48.944;9.148;2023-05-07T02:23:25;4.53;;;4.03;;
1839;SDS011;920;48.944;9.148;2023-05-07T02:25:52;4.27;;;3.87;;
1839;SDS011;920;48.944;9.148;2023-05-07T02:28:19;3.90;;;3.50;;
1839;SDS011;920;48.944;9.148;2023-05-07T02:30:59;3.90;;;3.50;;
1839;SDS011;920;48.944;9.148;2023-05-07T02:33:28;3.30;;;3.00;;
1839;SDS011;920;48.944;9.148;2023-05-07T02:35:56;4.33;;;3.50;;
1839;SDS011;920;48.944;9.148;2023-05-07T02:38:23;3.93;;;3.20;;
1839;SDS011;920;48.944;9.148;2023-05-07T02:40:50;5.17;;;3.60;;
1839;SDS011;920;48.944;9.148;2023-05-07T02:43:16;4.07;;;3.27;;
1839;SDS011;920;48.944;9.148;2023-05-07T02:45:46;4.00;;;3.23;;
1839;SDS011;920;48.944;9.148;2023-05-07T02:48:14;5.67;;;3.77;;
1839;SDS011;920;48.944;9.148;2023-05-07T02:50:42;3.93;;;3.40;;
1839;SDS011;920;48.944;9.148;2023-05-07T02:53:10;4.10;;;3.70;;
1839;SDS011;920;48.944;9.148;2023-05-07T02:55:37;4.20;;;3.53;;
1839;SDS011;920;48.944;9.148;2023-05-07T02:58:04;3.73;;;3.33;;
1839;SDS011;920;48.944;9.148;2023-05-07T03:00:33;4.20;;;3.70;;
1839;SDS011;920;48.944;9.148;2023-05-07T03:03:12;4.30;;;3.90;;
1839;SDS011;920;48.944;9.148;2023-05-07T03:05:38;4.40;;;3.33;;
1839;SDS011;920;48.944;9.148;2023-05-07T03:08:07;3.80;;;3.20;;
1839;SDS011;920;48.944;9.148;2023-05-07T03:10:34;4.80;;;4.30;;
1839;SDS011;920;48.944;9.148;2023-05-07T03:13:01;3.67;;;3.30;;
1839;SDS011;920;48.944;9.148;2023-05-07T03:15:28;3.73;;;3.33;;
1839;SDS011;920;48.944;9.148;2023-05-07T03:17:55;4.03;;;3.50;;
1839;SDS011;920;48.944;9.148;2023-05-07T03:20:23;4.13;;;3.73;;
1839;SDS011;920;48.944;9.148;2023-05-07T03:22:49;3.87;;;3.47;;
1839;SDS011;920;48.944;9.148;2023-05-07T03:25:17;4.23;;;3.63;;
1839;SDS011;920;48.944;9.148;2023-05-07T03:27:44;4.47;;;4.00;;
1839;SDS011;920;48.944;9.148;2023-05-07T03:30:11;4.30;;;3.63;;
1839;SDS011;920;48.944;9.148;2023-05-07T03:32:38;4.30;;;3.47;;
1839;SDS011;920;48.944;9.148;2023-05-07T03:35:08;5.10;;;3.83;;
1839;SDS011;920;48.944;9.148;2023-05-07T03:37:35;4.00;;;3.60;;
1839;SDS011;920;48.944;9.148;2023-05-07T03:40:02;4.23;;;3.83;;
1839;SDS011;920;48.944;9.148;2023-05-07T03:42:37;5.10;;;3.53;;
1839;SDS011;920;48.944;9.148;2023-05-07T03:45:04;3.60;;;3.20;;
1839;SDS011;920;48.944;9.148;2023-05-07T03:47:34;4.07;;;3.67;;
1839;SDS011;920;48.944;9.148;2023-05-07T03:50:00;4.70;;;3.77;;
1839;SDS011;920;48.944;9.148;2023-05-07T03:52:27;3.53;;;3.23;;
1839;SDS011;920;48.944;9.148;2023-05-07T03:54:57;4.40;;;3.77;;
1839;SDS011;920;48.944;9.148;2023-05-07T03:57:25;4.17;;;3.77;;
1839;SDS011;920;48.944;9.148;2023-05-07T03:59:53;4.50;;;3.90;;
1839;SDS011;920;48.944;9.148;2023-05-07T04:02:20;4.70;;;4.27;;
1839;SDS011;920;48.944;9.148;2023-05-07T04:04:48;3.93;;;3.43;;
1839;SDS011;920;48.944;9.148;2023-05-07T04:07:15;4.70;;;3.90;;
1839;SDS011;920;48.944;9.148;2023-05-07T04:09:44;4.07;;;3.67;;
1839;SDS011;920;48.944;9.148;2023-05-07T04:12:11;3.93;;;3.53;;
1839;SDS011;920;48.944;9.148;2023-05-07T04:14:38;4.40;;;3.60;;
1839;SDS011;920;48.944;9.148;2023-05-07T04:17:06;3.70;;;3.33;;
1839;SDS011;920;48.944;9.148;2023-05-07T04:19:37;4.73;;;3.90;;
1839;SDS011;920;48.944;9.148;2023-05-07T04:22:03;4.67;;;4.27;;
1839;SDS011;920;48.944;9.148;2023-05-07T04:24:31;5.90;;;3.67;;
1839;SDS011;920;48.944;9.148;2023-05-07T04:27:00;3.57;;;3.27;;
1839;SDS011;920;48.944;9.148;2023-05-07T04:29:27;3.67;;;3.37;;
1839;SDS011;920;48.944;9.148;2023-05-07T04:31:54;4.20;;;3.80;;
1839;SDS011;920;48.944;9.148;2023-05-07T04:34:23;4.50;;;3.60;;
1839;SDS011;920;48.944;9.148;2023-05-07T04:36:50;4.53;;;3.67;;
1839;SDS011;920;48.944;9.148;2023-05-07T04:39:17;4.37;;;3.90;;
1839;SDS011;920;48.944;9.148;2023-05-07T04:41:46;4.53;;;3.50;;
1839;SDS011;920;48.944;9.148;2023-05-07T04:44:13;3.80;;;3.50;;
1839;SDS011;920;48.944;9.148;2023-05-07T04:46:39;4.10;;;3.70;;
1839;SDS011;920;48.944;9.148;2023-05-07T04:49:06;4.20;;;3.80;;
1839;SDS011;920;48.944;9.148;2023-05-07T04:51:34;3.87;;;3.47;;
1839;SDS011;920;48.944;9.148;2023-05-07T04:54:01;4.10;;;3.60;;
1839;SDS011;920;48.944;9.148;2023-05-07T04:56:29;3.60;;;3.30;;
1839;SDS011;920;48.944;9.148;2023-05-07T04:58:57;4.03;;;3.63;;
1839;SDS011;920;48.944;9.148;2023-05-07T05:01:24;3.93;;;3.53;;
1839;SDS011;920;48.944;9.148;2023-05-07T05:03:50;4.30;;;3.90;;
1839;SDS011;920;48.944;9.148;2023-05-07T05:06:18;4.60;;;3.70;;
1839;SDS011;920;48.944;9.148;2023-05-07T05:08:47;6.00;;;3.87;;
1839;SDS011;920;48.944;9.148;2023-05-07T05:11:14;5.67;;;4.17;;
1839;SDS011;920;48.944;9.148;2023-05-07T05:13:41;3.93;;;3.63;;
1839;SDS011;920;48.944;9.148;2023-05-07T05:16:12;6.10;;;4.57;;
1839;SDS011;920;48.944;9.148;2023-05-07T05:18:40;4.57;;;4.17;;
1839;SDS011;920;48.944;9.148;2023-05-07T05:21:08;5.20;;;4.00;;
1839;SDS011;920;48.944;9.148;2023-05-07T05:23:35;4.60;;;4.20;;
1839;SDS011;920;48.944;9.148;2023-05-07T05:26:03;5.30;;;3.93;;
1839;SDS011;920;48.944;9.148;2023-05-07T05:28:32;4.40;;;4.00;;
1839;SDS011;920;48.944;9.148;2023-05-07T05:30:59;4.50;;;4.10;;
1839;SDS011;920;48.944;9.148;2023-05-07T05:33:28;4.10;;;3.60;;
1839;SDS011;920;48.944;9.148;2023-05-07T05:36:01;4.33;;;3.93;;
1839;SDS011;920;48.944;9.148;2023-05-07T05:38:27;4.43;;;4.03;;
1839;SDS011;920;48.944;9.148;2023-05-07T05:40:55;5.37;;;4.43;;
1839;SDS011;920;48.944;9.148;2023-05-07T05:43:23;5.07;;;4.57;;
1839;SDS011;920;48.944;9.148;2023-05-07T05:45:50;4.93;;;4.43;;
1839;SDS011;920;48.944;9.148;2023-05-07T05:48:17;5.60;;;4.73;;
1839;SDS011;920;48.944;9.148;2023-05-07T05:50:43;4.50;;;4.00;;
1839;SDS011;920;48.944;9.148;2023-05-07T05:53:10;4.30;;;3.90;;
1839;SDS011;920;48.944;9.148;2023-05-07T05:55:38;4.77;;;4.27;;
1839;SDS011;920;48.944;9.148;2023-05-07T05:58:05;5.10;;;4.53;;
1839;SDS011;920;48.944;9.148;2023-05-07T06:00:37;6.97;;;4.40;;
1839;SDS011;920;48.944;9.148;2023-05-07T06:03:05;4.60;;;3.93;;
1839;SDS011;920;48.944;9.148;2023-05-07T06:05:33;4.80;;;4.33;;
1839;SDS011;920;48.944;9.148;2023-05-07T06:07:59;4.80;;;4.10;;
1839;SDS011;920;48.944;9.148;2023-05-07T06:10:30;4.90;;;4.40;;
1839;SDS011;920;48.944;9.148;2023-05-07T06:12:57;4.37;;;3.97;;
1839;SDS011;920;48.944;9.148;2023-05-07T06:15:25;4.33;;;3.80;;
1839;SDS011;920;48.944;9.148;2023-05-07T06:17:54;3.63;;;3.33;;
1839;SDS011;920;48.944;9.148;2023-05-07T06:20:22;4.00;;;3.60;;
1839;SDS011;920;48.944;9.148;2023-05-07T06:22:49;3.30;;;3.00;;
1839;SDS011;920;48.944;9.148;2023-05-07T06:25:16;5.10;;;3.10;;
1839;SDS011;920;48.944;9.148;2023-05-07T06:27:43;3.03;;;2.73;;
1839;SDS011;920;48.944;9.148;2023-05-07T06:30:10;3.33;;;3.03;;
1839;SDS011;920;48.944;9.148;2023-05-07T06:32:39;3.73;;;3.43;;
1839;SDS011;920;48.944;9.148;2023-05-07T06:35:09;3.70;;;3.17;;
1839;SDS011;920;48.944;9.148;2023-05-07T06:37:37;4.33;;;3.30;;
1839;SDS011;920;48.944;9.148;2023-05-07T06:40:06;3.63;;;3.27;;
1839;SDS011;920;48.944;9.148;2023-05-07T06:42:36;3.30;;;2.80;;
1839;SDS011;920;48.944;9.148;2023-05-07T06:45:32;3.17;;;2.87;;
1839;SDS011;920;48.944;9.148;2023-05-07T06:47:59;3.53;;;2.83;;
1839;SDS011;920;48.944;9.148;2023-05-07T06:50:31;3.70;;;3.00;;
1839;SDS011;920;48.944;9.148;2023-05-07T06:52:58;6.47;;;3.20;;
1839;SDS011;920;48.944;9.148;2023-05-07T06:55:25;3.20;;;2.70;;
1839;SDS011;920;48.944;9.148;2023-05-07T06:57:52;3.30;;;3.00;;
1839;SDS011;920;48.944;9.148;2023-05-07T07:00:21;3.37;;;2.73;;
1839;SDS011;920;48.944;9.148;2023-05-07T07:02:52;3.40;;;2.73;;
1839;SDS011;920;48.944;9.148;2023-05-07T07:05:22;3.47;;;3.17;;
1839;SDS011;920;48.944;9.148;2023-05-07T07:07:50;3.33;;;3.03;;
1839;SDS011;920;48.944;9.148;2023-05-07T07:10:18;4.43;;;2.90;;
1839;SDS011;920;48.944;9.148;2023-05-07T07:12:46;6.57;;;3.00;;
1839;SDS011;920;48.944;9.148;2023-05-07T07:15:13;4.67;;;2.70;;
1839;SDS011;920;48.944;9.148;2023-05-07T07:17:40;3.13;;;2.70;;
1839;SDS011;920;48.944;9.148;2023-05-07T07:20:07;3.97;;;2.70;;
1839;SDS011;920;48.944;9.148;2023-05-07T07:22:35;3.00;;;2.70;;
1839;SDS011;920;48.944;9.148;2023-05-07T07:25:03;3.33;;;2.80;;
1839;SDS011;920;48.944;9.148;2023-05-07T07:27:30;3.10;;;2.50;;
1839;SDS011;920;48.944;9.148;2023-05-07T07:29:57;3.93;;;3.10;;
1839;SDS011;920;48.944;9.148;2023-05-07T07:32:24;4.13;;;3.00;;
1839;SDS011;920;48.944;9.148;2023-05-07T07:34:52;2.77;;;2.53;;
1839;SDS011;920;48.944;9.148;2023-05-07T07:37:19;3.60;;;2.50;;
1839;SDS011;920;48.944;9.148;2023-05-07T07:39:46;2.70;;;2.30;;
1839;SDS011;920;48.944;9.148;2023-05-07T07:42:14;2.83;;;2.00;;
1839;SDS011;920;48.944;9.148;2023-05-07T07:44:41;2.80;;;2.43;;
1839;SDS011;920;48.944;9.148;2023-05-07T07:47:11;4.20;;;2.23;;
1839;SDS011;920;48.944;9.148;2023-05-07T07:49:38;3.33;;;2.40;;
1839;SDS011;920;48.944;9.148;2023-05-07T07:52:06;2.40;;;2.00;;
1839;SDS011;920;48.944;9.148;2023-05-07T07:54:35;4.40;;;2.53;;
1839;SDS011;920;48.944;9.148;2023-05-07T07:57:03;2.53;;;2.27;;
1839;SDS011;920;48.944;9.148;2023-05-07T07:59:34;3.83;;;2.40;;
1839;SDS011;920;48.944;9.148;2023-05-07T08:02:00;2.90;;;2.50;;
1839;SDS011;920;48.944;9.148;2023-05-07T08:04:28;2.43;;;2.23;;
1839;SDS011;920;48.944;9.148;2023-05-07T08:06:59;2.47;;;2.20;;
1839;SDS011;920;48.944;9.148;2023-05-07T08:09:27;2.60;;;2.33;;
1839;SDS011;920;48.944;9.148;2023-05-07T08:11:56;2.70;;;2.50;;
1839;SDS011;920;48.944;9.148;2023-05-07T08:14:23;3.47;;;2.20;;
1839;SDS011;920;48.944;9.148;2023-05-07T08:16:52;2.83;;;2.30;;
1839;SDS011;920;48.944;9.148;2023-05-07T08:19:19;2.77;;;2.40;;
1839;SDS011;920;48.944;9.148;2023-05-07T08:21:46;3.00;;;2.50;;
1839;SDS011;920;48.944;9.148;2023-05-07T08:24:14;2.57;;;2.10;;
1839;SDS011;920;48.944;9.148;2023-05-07T08:26:40;3.73;;;2.80;;
1839;SDS011;920;48.944;9.148;2023-05-07T08:29:08;3.23;;;2.60;;
1839;SDS011;920;48.944;9.148;2023-05-07T08:31:35;4.10;;;2.60;;
1839;SDS011;920;48.944;9.148;2023-05-07T08:34:05;2.70;;;2.37;;
1839;SDS011;920;48.944;9.148;2023-05-07T08:36:34;2.90;;;2.50;;
1839;SDS011;920;48.944;9.148;2023-05-07T08:39:01;2.90;;;2.53;;
1839;SDS011;920;48.944;9.148;2023-05-07T08:41:29;2.70;;;2.10;;
1839;SDS011;920;48.944;9.148;2023-05-07T08:43:56;3.33;;;2.70;;
1839;SDS011;920;48.944;9.148;2023-05-07T08:46:25;4.03;;;2.93;;
1839;SDS011;920;48.944;9.148;2023-05-07T08:48:54;2.70;;;2.50;;
1839;SDS011;920;48.944;9.148;2023-05-07T08:51:23;3.30;;;2.57;;
1839;SDS011;920;48.944;9.148;2023-05-07T08:53:50;2.73;;;2.33;;
1839;SDS011;920;48.944;9.148;2023-05-07T08:56:23;2.50;;;2.30;;
1839;SDS011;920;48.944;9.148;2023-05-07T08:58:51;2.60;;;2.40;;
1839;SDS011;920;48.944;9.148;2023-05-07T09:01:22;4.73;;;2.03;;
1839;SDS011;920;48.944;9.148;2023-05-07T09:03:51;2.60;;;2.30;;
1839;SDS011;920;48.944;9.148;2023-05-07T09:06:18;2.87;;;2.43;;
1839;SDS011;920;48.944;9.148;2023-05-07T09:08:50;5.23;;;2.33;;
1839;SDS011;920;48.944;9.148;2023-05-07T09:11:19;2.57;;;2.33;;
1839;SDS011;920;48.944;9.148;2023-05-07T09:13:47;3.63;;;2.73;;
1839;SDS011;920;48.944;9.148;2023-05-07T09:16:14;2.50;;;2.10;;
1839;SDS011;920;48.944;9.148;2023-05-07T09:18:44;2.63;;;2.43;;
1839;SDS011;920;48.944;9.148;2023-05-07T09:21:14;3.33;;;2.70;;
1839;SDS011;920;48.944;9.148;2023-05-07T09:23:41;4.33;;;2.60;;
1839;SDS011;920;48.944;9.148;2023-05-07T09:26:10;3.77;;;2.70;;
1839;SDS011;920;48.944;9.148;2023-05-07T09:28:39;3.50;;;2.63;;
1839;SDS011;920;48.944;9.148;2023-05-07T09:31:09;3.10;;;2.80;;
1839;SDS011;920;48.944;9.148;2023-05-07T09:33:36;3.37;;;2.97;;
1839;SDS011;920;48.944;9.148;2023-05-07T09:36:04;3.07;;;2.77;;
1839;SDS011;920;48.944;9.148;2023-05-07T09:38:31;2.60;;;2.40;;
1839;SDS011;920;48.944;9.148;2023-05-07T09:41:02;3.93;;;2.90;;
1839;SDS011;920;48.944;9.148;2023-05-07T09:43:34;2.87;;;2.67;;
1839;SDS011;920;48.944;9.148;2023-05-07T09:46:03;3.27;;;2.87;;
1839;SDS011;920;48.944;9.148;2023-05-07T09:48:30;2.33;;;2.13;;
1839;SDS011;920;48.944;9.148;2023-05-07T09:50:58;2.93;;;2.53;;
1839;SDS011;920;48.944;9.148;2023-05-07T09:53:31;3.00;;;2.70;;
1839;SDS011;920;48.944;9.148;2023-05-07T09:56:02;3.00;;;2.67;;
1839;SDS011;920;48.944;9.148;2023-05-07T09:58:31;3.30;;;2.53;;
1839;SDS011;920;48.944;9.148;2023-05-07T10:01:00;3.20;;;2.50;;
1839;SDS011;920;48.944;9.148;2023-05-07T10:03:28;3.53;;;2.90;;
1839;SDS011;920;48.944;9.148;2023-05-07T10:06:01;2.80;;;2.50;;
1839;SDS011;920;48.944;9.148;2023-05-07T10:08:28;3.10;;;2.80;;
1839;SDS011;920;48.944;9.148;2023-05-07T10:10:58;3.87;;;2.60;;
1839;SDS011;920;48.944;9.148;2023-05-07T10:13:27;3.23;;;2.93;;
1839;SDS011;920;48.944;9.148;2023-05-07T10:15:59;3.00;;;2.70;;
1839;SDS011;920;48.944;9.148;2023-05-07T10:18:30;3.40;;;2.43;;
1839;SDS011;920;48.944;9.148;2023-05-07T10:21:05;3.40;;;3.10;;
1839;SDS011;920;48.944;9.148;2023-05-07T10:23:34;3.67;;;3.30;;
1839;SDS011;920;48.944;9.148;2023-05-07T10:26:02;3.13;;;2.80;;
1839;SDS011;920;48.944;9.148;2023-05-07T10:28:33;2.77;;;2.40;;
1839;SDS011;920;48.944;9.148;2023-05-07T10:31:14;3.47;;;2.77;;
1839;SDS011;920;48.944;9.148;2023-05-07T10:33:49;3.37;;;2.50;;
1839;SDS011;920;48.944;9.148;2023-05-07T10:36:19;2.97;;;2.70;;
1839;SDS011;920;48.944;9.148;2023-05-07T10:38:48;2.60;;;2.27;;
1839;SDS011;920;48.944;9.148;2023-05-07T10:41:15;5.17;;;2.67;;
1839;SDS011;920;48.944;9.148;2023-05-07T10:43:44;3.77;;;2.43;;
1839;SDS011;920;48.944;9.148;2023-05-07T10:46:33;2.90;;;2.60;;
1839;SDS011;920;48.944;9.148;2023-05-07T10:49:11;3.10;;;2.80;;
1839;SDS011;920;48.944;9.148;2023-05-07T10:54:38;4.10;;;2.60;;
1839;SDS011;920;48.944;9.148;2023-05-07T11:03:19;3.60;;;2.60;;
1839;SDS011;920;48.944;9.148;2023-05-07T11:06:09;3.30;;;2.70;;
1839;SDS011;920;48.944;9.148;2023-05-07T11:09:02;2.97;;;2.67;;
1839;SDS011;920;48.944;9.148;2023-05-07T11:11:49;3.30;;;3.00;;
1839;SDS011;920;48.944;9.148;2023-05-07T11:17:13;3.10;;;2.10;;
1839;SDS011;920;48.944;9.148;2023-05-07T11:19:52;3.73;;;2.67;;
1839;SDS011;920;48.944;9.148;2023-05-07T11:22:45;2.70;;;2.27;;
1839;SDS011;920;48.944;9.148;2023-05-07T11:25:30;2.47;;;2.27;;
1839;SDS011;920;48.944;9.148;2023-05-07T11:28:05;3.57;;;2.27;;
1839;SDS011;920;48.944;9.148;2023-05-07T11:30:36;2.57;;;2.30;;
1839;SDS011;920;48.944;9.148;2023-05-07T11:33:05;2.50;;;2.17;;
1839;SDS011;920;48.944;9.148;2023-05-07T11:35:34;3.50;;;2.47;;
1839;SDS011;920;48.944;9.148;2023-05-07T11:38:01;2.70;;;2.10;;
1839;SDS011;920;48.944;9.148;2023-05-07T11:40:31;2.97;;;2.20;;
1839;SDS011;920;48.944;9.148;2023-05-07T11:42:57;2.83;;;2.43;;
1839;SDS011;920;48.944;9.148;2023-05-07T11:45:24;2.90;;;2.10;;
1839;SDS011;920;48.944;9.148;2023-05-07T11:47:51;3.07;;;2.30;;
1839;SDS011;920;48.944;9.148;2023-05-07T11:50:18;3.63;;;1.90;;
1839;SDS011;920;48.944;9.148;2023-05-07T11:52:51;3.97;;;2.20;;
1839;SDS011;920;48.944;9.148;2023-05-07T11:55:18;2.40;;;2.20;;
1839;SDS011;920;48.944;9.148;2023-05-07T11:57:45;3.17;;;2.33;;
1839;SDS011;920;48.944;9.148;2023-05-07T12:00:15;2.77;;;2.20;;
1839;SDS011;920;48.944;9.148;2023-05-07T12:02:43;3.87;;;2.00;;
1839;SDS011;920;48.944;9.148;2023-05-07T12:05:11;2.47;;;2.10;;
1839;SDS011;920;48.944;9.148;2023-05-07T12:07:38;2.40;;;1.90;;
1839;SDS011;920;48.944;9.148;2023-05-07T12:10:07;6.87;;;2.37;;
1839;SDS011;920;48.944;9.148;2023-05-07T12:12:38;3.20;;;2.20;;
1839;SDS011;920;48.944;9.148;2023-05-07T12:15:05;2.30;;;1.80;;
1839;SDS011;920;48.944;9.148;2023-05-07T12:17:33;3.03;;;2.00;;
1839;SDS011;920;48.944;9.148;2023-05-07T12:20:00;2.87;;;2.27;;
1839;SDS011;920;48.944;9.148;2023-05-07T12:22:26;2.17;;;1.97;;
1839;SDS011;920;48.944;9.148;2023-05-07T12:24:56;2.53;;;1.90;;
1839;SDS011;920;48.944;9.148;2023-05-07T12:27:25;2.40;;;2.20;;
1839;SDS011;920;48.944;9.148;2023-05-07T12:29:52;2.30;;;1.90;;
1839;SDS011;920;48.944;9.148;2023-05-07T12:32:19;2.40;;;2.20;;
1839;SDS011;920;48.944;9.148;2023-05-07T12:34:49;2.20;;;2.00;;
1839;SDS011;920;48.944;9.148;2023-05-07T12:37:22;5.33;;;1.97;;
1839;SDS011;920;48.944;9.148;2023-05-07T12:39:49;2.77;;;2.00;;
1839;SDS011;920;48.944;9.148;2023-05-07T12:42:33;4.43;;;2.00;;
1839;SDS011;920;48.944;9.148;2023-05-07T12:45:07;3.27;;;2.00;;
1839;SDS011;920;48.944;9.148;2023-05-07T12:47:34;2.77;;;2.10;;
1839;SDS011;920;48.944;9.148;2023-05-07T12:50:01;2.90;;;2.10;;
1839;SDS011;920;48.944;9.148;2023-05-07T12:52:28;3.30;;;1.93;;
1839;SDS011;920;48.944;9.148;2023-05-07T12:54:56;3.13;;;2.23;;
1839;SDS011;920;48.944;9.148;2023-05-07T12:57:23;2.70;;;1.90;;
1839;SDS011;920;48.944;9.148;2023-05-07T12:59:51;2.73;;;2.07;;
1839;SDS011;920;48.944;9.148;2023-05-07T13:02:31;2.50;;;2.00;;
1839;SDS011;920;48.944;9.148;2023-05-07T13:04:58;2.80;;;2.27;;
1839;SDS011;920;48.944;9.148;2023-05-07T13:07:25;2.10;;;1.90;;
1839;SDS011;920;48.944;9.148;2023-05-07T13:09:52;3.40;;;2.10;;
1839;SDS011;920;48.944;9.148;2023-05-07T13:12:18;2.37;;;1.90;;
1839;SDS011;920;48.944;9.148;2023-05-07T13:14:45;2.80;;;2.30;;
1839;SDS011;920;48.944;9.148;2023-05-07T13:17:13;2.93;;;2.60;;
1839;SDS011;920;48.944;9.148;2023-05-07T13:19:40;4.50;;;2.90;;
1839;SDS011;920;48.944;9.148;2023-05-07T13:22:07;3.37;;;2.83;;
1839;SDS011;920;48.944;9.148;2023-05-07T13:24:33;4.00;;;2.53;;
1839;SDS011;920;48.944;9.148;2023-05-07T13:27:00;2.77;;;2.40;;
1839;SDS011;920;48.944;9.148;2023-05-07T13:29:28;2.93;;;2.43;;
1839;SDS011;920;48.944;9.148;2023-05-07T13:31:55;2.67;;;2.47;;
1839;SDS011;920;48.944;9.148;2023-05-07T13:34:24;2.70;;;2.37;;
1839;SDS011;920;48.944;9.148;2023-05-07T13:36:50;3.23;;;2.10;;
1839;SDS011;920;48.944;9.148;2023-05-07T13:39:17;2.53;;;1.90;;
1839;SDS011;920;48.944;9.148;2023-05-07T13:41:44;2.33;;;1.70;;
1839;SDS011;920;48.944;9.148;2023-05-07T13:44:10;2.23;;;1.40;;
1839;SDS011;920;48.944;9.148;2023-05-07T13:46:37;2.47;;;1.40;;
1839;SDS011;920;48.944;9.148;2023-05-07T13:49:04;3.70;;;1.30;;
1839;SDS011;920;48.944;9.148;2023-05-07T13:51:32;1.90;;;1.30;;
1839;SDS011;920;48.944;9.148;2023-05-07T13:53:59;1.67;;;1.20;;
1839;SDS011;920;48.944;9.148;2023-05-07T13:56:26;3.50;;;1.50;;
1839;SDS011;920;48.944;9.148;2023-05-07T13:58:53;2.33;;;1.67;;
1839;SDS011;920;48.944;9.148;2023-05-07T14:01:20;2.33;;;1.40;;
1839;SDS011;920;48.944;9.148;2023-05-07T14:03:46;5.20;;;1.87;;
1839;SDS011;920;48.944;9.148;2023-05-07T14:06:13;3.20;;;1.30;;
1839;SDS011;920;48.944;9.148;2023-05-07T14:08:41;2.03;;;1.40;;
1839;SDS011;920;48.944;9.148;2023-05-07T14:11:08;2.53;;;1.60;;
1839;SDS011;920;48.944;9.148;2023-05-07T14:13:35;2.30;;;1.30;;
1839;SDS011;920;48.944;9.148;2023-05-07T14:16:03;3.87;;;1.50;;
1839;SDS011;920;48.944;9.148;2023-05-07T14:18:31;2.20;;;1.30;;
1839;SDS011;920;48.944;9.148;2023-05-07T14:20:58;2.83;;;1.40;;
1839;SDS011;920;48.944;9.148;2023-05-07T14:23:25;2.53;;;1.20;;
1839;SDS011;920;48.944;9.148;2023-05-07T14:25:54;2.80;;;1.50;;
1839;SDS011;920;48.944;9.148;2023-05-07T14:28:22;2.60;;;1.60;;
1839;SDS011;920;48.944;9.148;2023-05-07T14:30:49;2.40;;;1.43;;
1839;SDS011;920;48.944;9.148;2023-05-07T14:33:16;4.27;;;1.77;;
1839;SDS011;920;48.944;9.148;2023-05-07T14:35:43;2.80;;;1.70;;
1839;SDS011;920;48.944;9.148;2023-05-07T14:38:14;3.37;;;2.00;;
1839;SDS011;920;48.944;9.148;2023-05-07T14:40:41;3.50;;;2.43;;
1839;SDS011;920;48.944;9.148;2023-05-07T14:43:09;2.00;;;1.70;;
1839;SDS011;920;48.944;9.148;2023-05-07T14:45:36;3.37;;;2.10;;
1839;SDS011;920;48.944;9.148;2023-05-07T14:48:03;3.07;;;2.57;;
1839;SDS011;920;48.944;9.148;2023-05-07T14:50:30;2.30;;;1.83;;
1839;SDS011;920;48.944;9.148;2023-05-07T14:52:57;3.00;;;2.00;;
1839;SDS011;920;48.944;9.148;2023-05-07T14:55:24;3.73;;;1.97;;
1839;SDS011;920;48.944;9.148;2023-05-07T14:57:50;2.87;;;2.17;;
1839;SDS011;920;48.944;9.148;2023-05-07T15:00:19;2.50;;;2.10;;
1839;SDS011;920;48.944;9.148;2023-05-07T15:02:46;2.50;;;2.20;;
1839;SDS011;920;48.944;9.148;2023-05-07T15:05:12;2.90;;;2.17;;
1839;SDS011;920;48.944;9.148;2023-05-07T15:07:39;2.97;;;2.50;;
1839;SDS011;920;48.944;9.148;2023-05-07T15:10:06;4.43;;;2.30;;
1839;SDS011;920;48.944;9.148;2023-05-07T15:12:34;2.97;;;2.27;;
1839;SDS011;920;48.944;9.148;2023-05-07T15:15:00;3.00;;;2.10;;
1839;SDS011;920;48.944;9.148;2023-05-07T15:17:29;3.63;;;2.20;;
1839;SDS011;920;48.944;9.148;2023-05-07T15:19:55;2.87;;;1.90;;
1839;SDS011;920;48.944;9.148;2023-05-07T15:22:22;2.40;;;2.03;;
1839;SDS011;920;48.944;9.148;2023-05-07T15:24:49;4.43;;;2.20;;
1839;SDS011;920;48.944;9.148;2023-05-07T15:27:15;2.10;;;1.80;;
1839;SDS011;920;48.944;9.148;2023-05-07T15:29:42;3.70;;;2.70;;
1839;SDS011;920;48.944;9.148;2023-05-07T15:32:09;3.57;;;2.47;;
1839;SDS011;920;48.944;9.148;2023-05-07T15:34:37;3.00;;;2.23;;
1839;SDS011;920;48.944;9.148;2023-05-07T15:37:04;4.10;;;2.30;;
1839;SDS011;920;48.944;9.148;2023-05-07T15:39:31;4.43;;;2.87;;
1839;SDS011;920;48.944;9.148;2023-05-07T15:41:57;2.37;;;2.00;;
1839;SDS011;920;48.944;9.148;2023-05-07T15:44:24;3.90;;;2.40;;
1839;SDS011;920;48.944;9.148;2023-05-07T15:46:53;3.03;;;2.70;;
1839;SDS011;920;48.944;9.148;2023-05-07T15:49:20;4.13;;;2.60;;